sensor_id;sensor_type;location;lat;lon;timestamp;P1;durP1;ratioP1;P2;durP2;ratioP2
1258;SDS011;619;51.472;6.628;2023-06-19T00:00:36;8.23;;;7.63;;
1258;SDS011;619;51.472;6.628;2023-06-19T00:03:04;8.67;;;7.77;;
1258;SDS011;619;51.472;6.628;2023-06-19T00:05:29;8.03;;;7.43;;
1258;SDS011;619;51.472;6.628;2023-06-19T00:07:55;9.17;;;8.10;;
1258;SDS011;619;51.472;6.628;2023-06-19T00:10:22;8.33;;;7.70;;
1258;SDS011;619;51.472;6.628;2023-06-19T00:12:48;8.57;;;7.83;;
1258;SDS011;619;51.472;6.628;2023-06-19T00:15:16;7.97;;;7.37;;
1258;SDS011;619;51.472;6.628;2023-06-19T00:17:42;8.50;;;7.77;;
1258;SDS011;619;51.472;6.628;2023-06-19T00:20:10;8.57;;;7.70;;
1258;SDS011;619;51.472;6.628;2023-06-19T00:22:35;9.80;;;7.90;;
1258;SDS011;619;51.472;6.628;2023-06-19T00:25:01;9.43;;;8.33;;
1258;SDS011;619;51.472;6.628;2023-06-19T00:27:29;8.37;;;7.00;;
1258;SDS011;619;51.472;6.628;2023-06-19T00:29:57;7.27;;;6.73;;
1258;SDS011;619;51.472;6.628;2023-06-19T00:32:27;7.70;;;7.10;;
1258;SDS011;619;51.472;6.628;2023-06-19T00:34:53;8.10;;;7.40;;
1258;SDS011;619;51.472;6.628;2023-06-19T00:37:19;8.83;;;8.13;;
1258;SDS011;619;51.472;6.628;2023-06-19T00:39:45;7.97;;;7.27;;
1258;SDS011;619;51.472;6.628;2023-06-19T00:42:10;8.63;;;7.83;;
1258;SDS011;619;51.472;6.628;2023-06-19T00:44:36;8.97;;;8.27;;
1258;SDS011;619;51.472;6.628;2023-06-19T00:47:02;8.70;;;8.00;;
1258;SDS011;619;51.472;6.628;2023-06-19T00:49:29;8.90;;;8.00;;
1258;SDS011;619;51.472;6.628;2023-06-19T00:51:57;11.17;;;8.40;;
1258;SDS011;619;51.472;6.628;2023-06-19T00:54:23;8.87;;;8.07;;
1258;SDS011;619;51.472;6.628;2023-06-19T00:56:49;8.23;;;7.53;;
1258;SDS011;619;51.472;6.628;2023-06-19T00:59:19;7.60;;;7.00;;
1258;SDS011;619;51.472;6.628;2023-06-19T01:01:47;7.90;;;7.23;;
1258;SDS011;619;51.472;6.628;2023-06-19T01:04:13;8.17;;;7.57;;
1258;SDS011;619;51.472;6.628;2023-06-19T01:06:54;7.93;;;7.23;;
1258;SDS011;619;51.472;6.628;2023-06-19T01:09:25;9.30;;;8.33;;
1258;SDS011;619;51.472;6.628;2023-06-19T01:11:57;8.23;;;7.50;;
1258;SDS011;619;51.472;6.628;2023-06-19T01:14:33;8.23;;;7.50;;
1258;SDS011;619;51.472;6.628;2023-06-19T01:17:12;7.90;;;7.10;;
1258;SDS011;619;51.472;6.628;2023-06-19T01:19:40;9.20;;;8.40;;
1258;SDS011;619;51.472;6.628;2023-06-19T01:22:10;8.60;;;7.83;;
1258;SDS011;619;51.472;6.628;2023-06-19T01:24:38;7.37;;;6.73;;
1258;SDS011;619;51.472;6.628;2023-06-19T01:27:03;11.13;;;7.67;;
1258;SDS011;619;51.472;6.628;2023-06-19T01:29:32;8.97;;;8.10;;
1258;SDS011;619;51.472;6.628;2023-06-19T01:32:08;8.40;;;7.63;;
1258;SDS011;619;51.472;6.628;2023-06-19T01:34:38;7.93;;;7.33;;
1258;SDS011;619;51.472;6.628;2023-06-19T01:37:08;8.30;;;7.50;;
1258;SDS011;619;51.472;6.628;2023-06-19T01:39:35;8.40;;;7.70;;
1258;SDS011;619;51.472;6.628;2023-06-19T01:42:06;11.53;;;7.87;;
1258;SDS011;619;51.472;6.628;2023-06-19T01:44:36;8.20;;;7.50;;
1258;SDS011;619;51.472;6.628;2023-06-19T01:47:09;8.10;;;7.40;;
1258;SDS011;619;51.472;6.628;2023-06-19T01:49:40;8.20;;;7.40;;
1258;SDS011;619;51.472;6.628;2023-06-19T01:52:06;9.07;;;8.30;;
1258;SDS011;619;51.472;6.628;2023-06-19T01:54:34;8.10;;;7.30;;
1258;SDS011;619;51.472;6.628;2023-06-19T01:57:02;7.93;;;7.13;;
1258;SDS011;619;51.472;6.628;2023-06-19T01:59:30;8.30;;;7.60;;
1258;SDS011;619;51.472;6.628;2023-06-19T02:01:56;7.80;;;7.13;;
1258;SDS011;619;51.472;6.628;2023-06-19T02:04:21;7.73;;;7.10;;
1258;SDS011;619;51.472;6.628;2023-06-19T02:06:49;8.57;;;7.87;;
1258;SDS011;619;51.472;6.628;2023-06-19T02:09:22;7.23;;;6.73;;
1258;SDS011;619;51.472;6.628;2023-06-19T02:11:50;9.00;;;8.30;;
1258;SDS011;619;51.472;6.628;2023-06-19T02:14:20;8.87;;;8.07;;
1258;SDS011;619;51.472;6.628;2023-06-19T02:16:46;9.60;;;8.07;;
1258;SDS011;619;51.472;6.628;2023-06-19T02:19:12;7.77;;;7.17;;
1258;SDS011;619;51.472;6.628;2023-06-19T02:21:38;8.07;;;7.37;;
1258;SDS011;619;51.472;6.628;2023-06-19T02:24:04;8.27;;;7.57;;
1258;SDS011;619;51.472;6.628;2023-06-19T02:26:30;7.90;;;7.17;;
1258;SDS011;619;51.472;6.628;2023-06-19T02:28:58;9.30;;;7.07;;
1258;SDS011;619;51.472;6.628;2023-06-19T02:31:26;7.70;;;7.00;;
1258;SDS011;619;51.472;6.628;2023-06-19T02:33:53;10.27;;;7.80;;
1258;SDS011;619;51.472;6.628;2023-06-19T02:36:24;7.90;;;7.30;;
1258;SDS011;619;51.472;6.628;2023-06-19T02:38:50;8.63;;;7.20;;
1258;SDS011;619;51.472;6.628;2023-06-19T02:41:18;8.80;;;8.00;;
1258;SDS011;619;51.472;6.628;2023-06-19T02:43:46;7.67;;;7.07;;
1258;SDS011;619;51.472;6.628;2023-06-19T02:46:12;8.80;;;8.03;;
1258;SDS011;619;51.472;6.628;2023-06-19T02:48:42;8.00;;;7.30;;
1258;SDS011;619;51.472;6.628;2023-06-19T02:51:10;7.10;;;6.50;;
1258;SDS011;619;51.472;6.628;2023-06-19T02:53:38;8.23;;;7.43;;
1258;SDS011;619;51.472;6.628;2023-06-19T02:56:04;6.77;;;6.17;;
1258;SDS011;619;51.472;6.628;2023-06-19T02:58:32;6.73;;;6.20;;
1258;SDS011;619;51.472;6.628;2023-06-19T03:01:02;7.20;;;6.50;;
1258;SDS011;619;51.472;6.628;2023-06-19T03:03:28;7.53;;;6.07;;
1258;SDS011;619;51.472;6.628;2023-06-19T03:05:54;8.03;;;7.23;;
1258;SDS011;619;51.472;6.628;2023-06-19T03:08:20;7.10;;;6.50;;
1258;SDS011;619;51.472;6.628;2023-06-19T03:10:46;6.50;;;6.00;;
1258;SDS011;619;51.472;6.628;2023-06-19T03:13:12;6.30;;;5.73;;
1258;SDS011;619;51.472;6.628;2023-06-19T03:15:38;6.60;;;6.10;;
1258;SDS011;619;51.472;6.628;2023-06-19T03:18:04;6.30;;;5.80;;
1258;SDS011;619;51.472;6.628;2023-06-19T03:20:34;6.40;;;5.90;;
1258;SDS011;619;51.472;6.628;2023-06-19T03:23:00;6.00;;;5.50;;
1258;SDS011;619;51.472;6.628;2023-06-19T03:25:25;5.80;;;5.30;;
1258;SDS011;619;51.472;6.628;2023-06-19T03:27:51;6.00;;;5.50;;
1258;SDS011;619;51.472;6.628;2023-06-19T03:30:17;5.00;;;4.60;;
1258;SDS011;619;51.472;6.628;2023-06-19T03:32:43;5.60;;;5.10;;
1258;SDS011;619;51.472;6.628;2023-06-19T03:35:11;5.33;;;4.90;;
1258;SDS011;619;51.472;6.628;2023-06-19T03:37:37;7.17;;;5.53;;
1258;SDS011;619;51.472;6.628;2023-06-19T03:40:02;5.47;;;4.97;;
1258;SDS011;619;51.472;6.628;2023-06-19T03:42:28;7.93;;;4.90;;
1258;SDS011;619;51.472;6.628;2023-06-19T03:44:54;4.63;;;4.23;;
1258;SDS011;619;51.472;6.628;2023-06-19T03:47:22;4.90;;;4.50;;
1258;SDS011;619;51.472;6.628;2023-06-19T03:49:48;5.23;;;4.77;;
1258;SDS011;619;51.472;6.628;2023-06-19T03:52:15;5.53;;;5.03;;
1258;SDS011;619;51.472;6.628;2023-06-19T03:54:41;4.80;;;4.40;;
1258;SDS011;619;51.472;6.628;2023-06-19T03:57:07;5.73;;;4.77;;
1258;SDS011;619;51.472;6.628;2023-06-19T03:59:35;8.67;;;5.17;;
1258;SDS011;619;51.472;6.628;2023-06-19T04:02:01;4.73;;;4.30;;
1258;SDS011;619;51.472;6.628;2023-06-19T04:04:26;5.37;;;4.30;;
1258;SDS011;619;51.472;6.628;2023-06-19T04:06:54;4.57;;;4.07;;
1258;SDS011;619;51.472;6.628;2023-06-19T04:09:26;4.87;;;3.87;;
1258;SDS011;619;51.472;6.628;2023-06-19T04:11:52;4.10;;;3.73;;
1258;SDS011;619;51.472;6.628;2023-06-19T04:14:17;4.60;;;3.50;;
1258;SDS011;619;51.472;6.628;2023-06-19T04:16:43;4.20;;;3.80;;
1258;SDS011;619;51.472;6.628;2023-06-19T04:19:13;4.50;;;3.67;;
1258;SDS011;619;51.472;6.628;2023-06-19T04:21:41;4.20;;;3.80;;
1258;SDS011;619;51.472;6.628;2023-06-19T04:24:06;3.70;;;3.37;;
1258;SDS011;619;51.472;6.628;2023-06-19T04:26:36;3.80;;;3.50;;
1258;SDS011;619;51.472;6.628;2023-06-19T04:29:02;7.13;;;3.30;;
1258;SDS011;619;51.472;6.628;2023-06-19T04:31:28;7.80;;;3.73;;
1258;SDS011;619;51.472;6.628;2023-06-19T04:33:57;3.60;;;3.30;;
1258;SDS011;619;51.472;6.628;2023-06-19T04:36:25;5.10;;;3.43;;
1258;SDS011;619;51.472;6.628;2023-06-19T04:38:59;3.53;;;3.00;;
1258;SDS011;619;51.472;6.628;2023-06-19T04:41:25;8.03;;;3.90;;
1258;SDS011;619;51.472;6.628;2023-06-19T04:43:51;3.90;;;3.50;;
1258;SDS011;619;51.472;6.628;2023-06-19T04:46:17;4.90;;;3.23;;
1258;SDS011;619;51.472;6.628;2023-06-19T04:48:45;4.50;;;3.10;;
1258;SDS011;619;51.472;6.628;2023-06-19T04:51:15;4.60;;;3.47;;
1258;SDS011;619;51.472;6.628;2023-06-19T04:53:45;3.57;;;3.17;;
1258;SDS011;619;51.472;6.628;2023-06-19T04:56:10;3.53;;;3.00;;
1258;SDS011;619;51.472;6.628;2023-06-19T04:58:36;4.73;;;3.60;;
1258;SDS011;619;51.472;6.628;2023-06-19T05:01:09;4.13;;;3.73;;
1258;SDS011;619;51.472;6.628;2023-06-19T05:03:36;3.87;;;3.47;;
1258;SDS011;619;51.472;6.628;2023-06-19T05:06:04;4.60;;;3.27;;
1258;SDS011;619;51.472;6.628;2023-06-19T05:08:30;6.10;;;3.90;;
1258;SDS011;619;51.472;6.628;2023-06-19T05:10:55;3.53;;;2.90;;
1258;SDS011;619;51.472;6.628;2023-06-19T05:13:22;4.57;;;4.17;;
1258;SDS011;619;51.472;6.628;2023-06-19T05:15:48;4.10;;;3.70;;
1258;SDS011;619;51.472;6.628;2023-06-19T05:18:17;6.70;;;4.47;;
1258;SDS011;619;51.472;6.628;2023-06-19T05:20:45;5.00;;;4.30;;
1258;SDS011;619;51.472;6.628;2023-06-19T05:23:11;6.33;;;4.20;;
1258;SDS011;619;51.472;6.628;2023-06-19T05:25:37;4.67;;;4.17;;
1258;SDS011;619;51.472;6.628;2023-06-19T05:28:03;3.80;;;3.40;;
1258;SDS011;619;51.472;6.628;2023-06-19T05:30:29;4.73;;;4.13;;
1258;SDS011;619;51.472;6.628;2023-06-19T05:32:54;4.33;;;3.93;;
1258;SDS011;619;51.472;6.628;2023-06-19T05:35:20;4.87;;;4.20;;
1258;SDS011;619;51.472;6.628;2023-06-19T05:37:50;4.80;;;4.40;;
1258;SDS011;619;51.472;6.628;2023-06-19T05:40:18;4.90;;;4.10;;
1258;SDS011;619;51.472;6.628;2023-06-19T05:42:44;5.13;;;3.50;;
1258;SDS011;619;51.472;6.628;2023-06-19T05:45:10;4.00;;;3.70;;
1258;SDS011;619;51.472;6.628;2023-06-19T05:47:38;5.67;;;3.47;;
1258;SDS011;619;51.472;6.628;2023-06-19T05:50:04;5.70;;;3.83;;
1258;SDS011;619;51.472;6.628;2023-06-19T05:52:32;4.00;;;3.70;;
1258;SDS011;619;51.472;6.628;2023-06-19T05:55:02;3.90;;;3.60;;
1258;SDS011;619;51.472;6.628;2023-06-19T05:57:28;4.70;;;4.20;;
1258;SDS011;619;51.472;6.628;2023-06-19T05:59:54;4.50;;;3.83;;
1258;SDS011;619;51.472;6.628;2023-06-19T06:02:20;4.97;;;3.50;;
1258;SDS011;619;51.472;6.628;2023-06-19T06:04:45;4.77;;;4.20;;
1258;SDS011;619;51.472;6.628;2023-06-19T06:07:13;4.50;;;4.10;;
1258;SDS011;619;51.472;6.628;2023-06-19T06:09:39;4.33;;;4.00;;
1258;SDS011;619;51.472;6.628;2023-06-19T06:12:07;5.70;;;3.97;;
1258;SDS011;619;51.472;6.628;2023-06-19T06:14:37;5.17;;;4.50;;
1258;SDS011;619;51.472;6.628;2023-06-19T06:17:05;5.10;;;4.60;;
1258;SDS011;619;51.472;6.628;2023-06-19T06:19:31;3.80;;;3.40;;
1258;SDS011;619;51.472;6.628;2023-06-19T06:21:58;4.67;;;4.27;;
1258;SDS011;619;51.472;6.628;2023-06-19T06:24:24;5.07;;;4.37;;
1258;SDS011;619;51.472;6.628;2023-06-19T06:26:49;4.73;;;4.30;;
1258;SDS011;619;51.472;6.628;2023-06-19T06:29:15;4.47;;;4.07;;
1258;SDS011;619;51.472;6.628;2023-06-19T06:31:45;4.70;;;4.30;;
1258;SDS011;619;51.472;6.628;2023-06-19T06:34:14;4.00;;;3.67;;
1258;SDS011;619;51.472;6.628;2023-06-19T06:36:39;3.70;;;3.40;;
1258;SDS011;619;51.472;6.628;2023-06-19T06:39:05;4.27;;;3.87;;
1258;SDS011;619;51.472;6.628;2023-06-19T06:41:31;5.70;;;4.60;;
1258;SDS011;619;51.472;6.628;2023-06-19T06:43:57;4.13;;;3.50;;
1258;SDS011;619;51.472;6.628;2023-06-19T06:46:25;3.80;;;3.50;;
1258;SDS011;619;51.472;6.628;2023-06-19T06:48:50;3.90;;;3.60;;
1258;SDS011;619;51.472;6.628;2023-06-19T06:51:16;5.70;;;4.57;;
1258;SDS011;619;51.472;6.628;2023-06-19T06:53:41;7.30;;;4.60;;
1258;SDS011;619;51.472;6.628;2023-06-19T06:56:07;4.43;;;4.00;;
1258;SDS011;619;51.472;6.628;2023-06-19T06:58:33;4.27;;;3.87;;
1258;SDS011;619;51.472;6.628;2023-06-19T07:01:03;5.87;;;4.03;;
1258;SDS011;619;51.472;6.628;2023-06-19T07:03:29;4.73;;;4.33;;
1258;SDS011;619;51.472;6.628;2023-06-19T07:05:57;6.20;;;4.13;;
1258;SDS011;619;51.472;6.628;2023-06-19T07:08:23;4.33;;;3.93;;
1258;SDS011;619;51.472;6.628;2023-06-19T07:10:48;5.90;;;3.57;;
1258;SDS011;619;51.472;6.628;2023-06-19T07:13:14;7.70;;;3.80;;
1258;SDS011;619;51.472;6.628;2023-06-19T07:15:40;4.40;;;3.70;;
1258;SDS011;619;51.472;6.628;2023-06-19T07:18:05;4.90;;;3.43;;
1258;SDS011;619;51.472;6.628;2023-06-19T07:20:31;3.70;;;3.40;;
1258;SDS011;619;51.472;6.628;2023-06-19T07:22:57;5.37;;;4.20;;
1258;SDS011;619;51.472;6.628;2023-06-19T07:25:23;3.87;;;3.57;;
1258;SDS011;619;51.472;6.628;2023-06-19T07:27:50;3.43;;;3.13;;
1258;SDS011;619;51.472;6.628;2023-06-19T07:30:16;5.60;;;4.33;;
1258;SDS011;619;51.472;6.628;2023-06-19T07:32:41;5.20;;;3.90;;
1258;SDS011;619;51.472;6.628;2023-06-19T07:35:07;4.40;;;4.00;;
1258;SDS011;619;51.472;6.628;2023-06-19T07:37:38;3.63;;;3.33;;
1258;SDS011;619;51.472;6.628;2023-06-19T07:40:06;4.40;;;4.00;;
1258;SDS011;619;51.472;6.628;2023-06-19T07:42:32;4.73;;;4.33;;
1258;SDS011;619;51.472;6.628;2023-06-19T07:44:57;4.33;;;3.90;;
1258;SDS011;619;51.472;6.628;2023-06-19T07:47:23;4.70;;;4.07;;
1258;SDS011;619;51.472;6.628;2023-06-19T07:49:51;5.63;;;4.20;;
1258;SDS011;619;51.472;6.628;2023-06-19T07:52:19;6.13;;;4.33;;
1258;SDS011;619;51.472;6.628;2023-06-19T07:57:17;5.97;;;3.77;;
1258;SDS011;619;51.472;6.628;2023-06-19T07:59:43;4.30;;;3.90;;
1258;SDS011;619;51.472;6.628;2023-06-19T08:02:10;5.20;;;4.00;;
1258;SDS011;619;51.472;6.628;2023-06-19T08:04:36;4.47;;;3.70;;
1258;SDS011;619;51.472;6.628;2023-06-19T08:07:02;3.87;;;3.43;;
1258;SDS011;619;51.472;6.628;2023-06-19T08:09:30;3.63;;;3.33;;
1258;SDS011;619;51.472;6.628;2023-06-19T08:11:56;6.07;;;3.90;;
1258;SDS011;619;51.472;6.628;2023-06-19T08:14:22;3.67;;;3.17;;
1258;SDS011;619;51.472;6.628;2023-06-19T08:16:47;3.83;;;3.10;;
1258;SDS011;619;51.472;6.628;2023-06-19T08:19:13;5.03;;;3.37;;
1258;SDS011;619;51.472;6.628;2023-06-19T08:21:39;6.27;;;4.13;;
1258;SDS011;619;51.472;6.628;2023-06-19T08:24:05;7.13;;;2.97;;
1258;SDS011;619;51.472;6.628;2023-06-19T08:26:31;6.17;;;2.90;;
1258;SDS011;619;51.472;6.628;2023-06-19T08:28:56;4.40;;;2.80;;
1258;SDS011;619;51.472;6.628;2023-06-19T08:31:22;4.83;;;2.90;;
1258;SDS011;619;51.472;6.628;2023-06-19T08:33:53;3.60;;;3.30;;
1258;SDS011;619;51.472;6.628;2023-06-19T08:36:19;2.80;;;2.60;;
1258;SDS011;619;51.472;6.628;2023-06-19T08:38:44;3.80;;;2.60;;
1258;SDS011;619;51.472;6.628;2023-06-19T08:41:14;7.27;;;2.87;;
1258;SDS011;619;51.472;6.628;2023-06-19T08:43:46;5.00;;;3.20;;
1258;SDS011;619;51.472;6.628;2023-06-19T08:46:15;6.80;;;3.53;;
1258;SDS011;619;51.472;6.628;2023-06-19T08:48:42;7.07;;;4.13;;
1258;SDS011;619;51.472;6.628;2023-06-19T08:51:09;5.10;;;3.70;;
1258;SDS011;619;51.472;6.628;2023-06-19T08:53:36;11.77;;;4.57;;
1258;SDS011;619;51.472;6.628;2023-06-19T08:56:09;7.00;;;4.03;;
1258;SDS011;619;51.472;6.628;2023-06-19T08:58:34;4.53;;;4.10;;
1258;SDS011;619;51.472;6.628;2023-06-19T09:01:00;9.20;;;4.63;;
1258;SDS011;619;51.472;6.628;2023-06-19T09:03:26;6.27;;;3.87;;
1258;SDS011;619;51.472;6.628;2023-06-19T09:05:51;4.53;;;3.70;;
1258;SDS011;619;51.472;6.628;2023-06-19T09:08:19;8.50;;;4.43;;
1258;SDS011;619;51.472;6.628;2023-06-19T09:10:59;4.90;;;4.10;;
1258;SDS011;619;51.472;6.628;2023-06-19T09:13:26;4.20;;;3.80;;
1258;SDS011;619;51.472;6.628;2023-06-19T09:15:59;6.77;;;4.17;;
1258;SDS011;619;51.472;6.628;2023-06-19T09:18:45;8.33;;;4.13;;
1258;SDS011;619;51.472;6.628;2023-06-19T09:21:20;5.43;;;4.30;;
1258;SDS011;619;51.472;6.628;2023-06-19T09:23:53;5.87;;;4.67;;
1258;SDS011;619;51.472;6.628;2023-06-19T09:26:19;7.23;;;3.90;;
1258;SDS011;619;51.472;6.628;2023-06-19T09:28:47;4.53;;;4.13;;
1258;SDS011;619;51.472;6.628;2023-06-19T09:31:15;5.30;;;3.90;;
1258;SDS011;619;51.472;6.628;2023-06-19T09:33:43;7.40;;;4.77;;
1258;SDS011;619;51.472;6.628;2023-06-19T09:36:08;6.93;;;4.30;;
1258;SDS011;619;51.472;6.628;2023-06-19T09:38:37;5.40;;;5.00;;
1258;SDS011;619;51.472;6.628;2023-06-19T09:41:05;6.87;;;4.80;;
1258;SDS011;619;51.472;6.628;2023-06-19T09:43:42;6.00;;;5.37;;
1258;SDS011;619;51.472;6.628;2023-06-19T09:46:11;5.60;;;5.00;;
1258;SDS011;619;51.472;6.628;2023-06-19T09:48:41;4.90;;;4.50;;
1258;SDS011;619;51.472;6.628;2023-06-19T09:51:18;5.67;;;5.20;;
1258;SDS011;619;51.472;6.628;2023-06-19T09:53:45;5.47;;;5.03;;
1258;SDS011;619;51.472;6.628;2023-06-19T09:56:13;5.60;;;5.10;;
1258;SDS011;619;51.472;6.628;2023-06-19T09:58:39;5.67;;;5.27;;
1258;SDS011;619;51.472;6.628;2023-06-19T10:01:08;6.50;;;5.37;;
1258;SDS011;619;51.472;6.628;2023-06-19T10:03:36;6.10;;;5.60;;
1258;SDS011;619;51.472;6.628;2023-06-19T10:06:03;8.30;;;5.50;;
1258;SDS011;619;51.472;6.628;2023-06-19T10:10:58;6.47;;;5.87;;
1258;SDS011;619;51.472;6.628;2023-06-19T10:13:30;6.30;;;5.70;;
1258;SDS011;619;51.472;6.628;2023-06-19T10:15:58;7.10;;;6.50;;
1258;SDS011;619;51.472;6.628;2023-06-19T10:18:26;6.97;;;6.37;;
1258;SDS011;619;51.472;6.628;2023-06-19T10:20:55;6.90;;;6.20;;
1258;SDS011;619;51.472;6.628;2023-06-19T10:23:22;6.60;;;6.00;;
1258;SDS011;619;51.472;6.628;2023-06-19T10:25:58;8.30;;;5.73;;
1258;SDS011;619;51.472;6.628;2023-06-19T10:28:26;7.27;;;6.63;;
1258;SDS011;619;51.472;6.628;2023-06-19T10:31:03;6.90;;;6.30;;
1258;SDS011;619;51.472;6.628;2023-06-19T10:33:37;6.90;;;6.30;;
1258;SDS011;619;51.472;6.628;2023-06-19T10:36:21;8.90;;;8.00;;
1258;SDS011;619;51.472;6.628;2023-06-19T10:38:48;8.40;;;7.70;;
1258;SDS011;619;51.472;6.628;2023-06-19T10:41:15;7.40;;;6.57;;
1258;SDS011;619;51.472;6.628;2023-06-19T10:43:52;7.70;;;7.10;;
1258;SDS011;619;51.472;6.628;2023-06-19T10:46:24;8.00;;;7.30;;
1258;SDS011;619;51.472;6.628;2023-06-19T10:48:55;7.23;;;6.57;;
1258;SDS011;619;51.472;6.628;2023-06-19T10:51:26;7.73;;;7.00;;
1258;SDS011;619;51.472;6.628;2023-06-19T10:53:59;7.30;;;6.70;;
1258;SDS011;619;51.472;6.628;2023-06-19T10:56:25;7.03;;;6.43;;
1258;SDS011;619;51.472;6.628;2023-06-19T10:59:00;6.90;;;6.30;;
1258;SDS011;619;51.472;6.628;2023-06-19T11:04:07;10.90;;;6.57;;
1258;SDS011;619;51.472;6.628;2023-06-19T11:06:34;10.03;;;5.63;;
1258;SDS011;619;51.472;6.628;2023-06-19T11:09:00;10.83;;;7.03;;
1258;SDS011;619;51.472;6.628;2023-06-19T11:14:06;6.90;;;6.30;;
1258;SDS011;619;51.472;6.628;2023-06-19T11:16:34;7.40;;;6.80;;
1258;SDS011;619;51.472;6.628;2023-06-19T11:19:05;9.70;;;6.27;;
1258;SDS011;619;51.472;6.628;2023-06-19T11:21:36;7.60;;;7.00;;
1258;SDS011;619;51.472;6.628;2023-06-19T11:24:10;6.67;;;6.00;;
1258;SDS011;619;51.472;6.628;2023-06-19T11:26:40;9.70;;;6.37;;
1258;SDS011;619;51.472;6.628;2023-06-19T11:29:25;8.37;;;6.00;;
1258;SDS011;619;51.472;6.628;2023-06-19T11:32:06;7.00;;;6.43;;
1258;SDS011;619;51.472;6.628;2023-06-19T11:34:34;6.97;;;6.30;;
1258;SDS011;619;51.472;6.628;2023-06-19T11:37:22;7.17;;;6.60;;
1258;SDS011;619;51.472;6.628;2023-06-19T11:39:47;8.33;;;7.53;;
1258;SDS011;619;51.472;6.628;2023-06-19T11:42:17;10.83;;;6.80;;
1258;SDS011;619;51.472;6.628;2023-06-19T11:44:55;6.60;;;6.10;;
1258;SDS011;619;51.472;6.628;2023-06-19T11:47:22;8.13;;;7.00;;
1258;SDS011;619;51.472;6.628;2023-06-19T11:49:53;7.57;;;6.70;;
1258;SDS011;619;51.472;6.628;2023-06-19T11:52:21;7.00;;;6.30;;
1258;SDS011;619;51.472;6.628;2023-06-19T11:54:47;6.50;;;5.90;;
1258;SDS011;619;51.472;6.628;2023-06-19T11:57:12;7.80;;;5.87;;
1258;SDS011;619;51.472;6.628;2023-06-19T11:59:41;7.40;;;6.57;;
1258;SDS011;619;51.472;6.628;2023-06-19T12:02:10;7.67;;;6.83;;
1258;SDS011;619;51.472;6.628;2023-06-19T12:04:36;7.13;;;6.47;;
1258;SDS011;619;51.472;6.628;2023-06-19T12:07:01;12.00;;;6.77;;
1258;SDS011;619;51.472;6.628;2023-06-19T12:09:31;7.13;;;6.53;;
1258;SDS011;619;51.472;6.628;2023-06-19T12:11:57;8.90;;;8.20;;
1258;SDS011;619;51.472;6.628;2023-06-19T12:14:23;8.03;;;7.23;;
1258;SDS011;619;51.472;6.628;2023-06-19T12:16:49;9.67;;;8.77;;
1258;SDS011;619;51.472;6.628;2023-06-19T12:19:15;7.73;;;7.10;;
1258;SDS011;619;51.472;6.628;2023-06-19T12:21:43;6.27;;;5.77;;
1258;SDS011;619;51.472;6.628;2023-06-19T12:24:09;7.80;;;7.00;;
1258;SDS011;619;51.472;6.628;2023-06-19T12:26:37;8.23;;;7.53;;
1258;SDS011;619;51.472;6.628;2023-06-19T12:29:03;8.10;;;7.37;;
1258;SDS011;619;51.472;6.628;2023-06-19T12:31:29;8.10;;;6.10;;
1258;SDS011;619;51.472;6.628;2023-06-19T12:33:56;7.53;;;6.83;;
1258;SDS011;619;51.472;6.628;2023-06-19T12:36:21;7.37;;;6.60;;
1258;SDS011;619;51.472;6.628;2023-06-19T12:38:49;8.67;;;6.97;;
1258;SDS011;619;51.472;6.628;2023-06-19T12:41:18;6.50;;;5.93;;
1258;SDS011;619;51.472;6.628;2023-06-19T12:43:47;7.13;;;6.43;;
1258;SDS011;619;51.472;6.628;2023-06-19T12:46:13;6.10;;;5.60;;
1258;SDS011;619;51.472;6.628;2023-06-19T12:48:40;6.73;;;6.23;;
1258;SDS011;619;51.472;6.628;2023-06-19T12:51:06;6.90;;;6.20;;
1258;SDS011;619;51.472;6.628;2023-06-19T12:53:32;6.80;;;6.00;;
1258;SDS011;619;51.472;6.628;2023-06-19T12:55:58;11.23;;;6.40;;
1258;SDS011;619;51.472;6.628;2023-06-19T12:58:28;12.57;;;6.97;;
1258;SDS011;619;51.472;6.628;2023-06-19T13:00:58;7.70;;;7.00;;
1258;SDS011;619;51.472;6.628;2023-06-19T13:03:26;6.97;;;6.27;;
1258;SDS011;619;51.472;6.628;2023-06-19T13:05:52;6.70;;;6.20;;
1258;SDS011;619;51.472;6.628;2023-06-19T13:08:17;7.00;;;6.40;;
1258;SDS011;619;51.472;6.628;2023-06-19T13:10:45;7.43;;;6.77;;
1258;SDS011;619;51.472;6.628;2023-06-19T13:13:11;6.33;;;5.73;;
1258;SDS011;619;51.472;6.628;2023-06-19T13:15:40;6.90;;;6.30;;
1258;SDS011;619;51.472;6.628;2023-06-19T13:18:08;7.27;;;6.57;;
1258;SDS011;619;51.472;6.628;2023-06-19T13:20:33;9.50;;;8.43;;
1258;SDS011;619;51.472;6.628;2023-06-19T13:23:01;8.70;;;7.90;;
1258;SDS011;619;51.472;6.628;2023-06-19T13:25:27;8.37;;;7.40;;
1258;SDS011;619;51.472;6.628;2023-06-19T13:27:57;9.30;;;6.53;;
1258;SDS011;619;51.472;6.628;2023-06-19T13:30:23;7.50;;;6.90;;
1258;SDS011;619;51.472;6.628;2023-06-19T13:32:48;7.00;;;6.40;;
1258;SDS011;619;51.472;6.628;2023-06-19T13:35:16;7.97;;;6.60;;
1258;SDS011;619;51.472;6.628;2023-06-19T13:37:46;8.20;;;6.10;;
1258;SDS011;619;51.472;6.628;2023-06-19T13:40:12;8.80;;;6.77;;
1258;SDS011;619;51.472;6.628;2023-06-19T13:42:40;6.23;;;5.60;;
1258;SDS011;619;51.472;6.628;2023-06-19T13:45:06;7.70;;;7.00;;
1258;SDS011;619;51.472;6.628;2023-06-19T13:47:31;9.23;;;8.40;;
1258;SDS011;619;51.472;6.628;2023-06-19T13:49:57;7.47;;;6.87;;
1258;SDS011;619;51.472;6.628;2023-06-19T13:52:25;6.33;;;5.80;;
1258;SDS011;619;51.472;6.628;2023-06-19T13:54:53;7.40;;;6.80;;
1258;SDS011;619;51.472;6.628;2023-06-19T13:57:19;7.23;;;6.53;;
1258;SDS011;619;51.472;6.628;2023-06-19T13:59:44;7.27;;;6.67;;
1258;SDS011;619;51.472;6.628;2023-06-19T14:02:10;6.57;;;5.97;;
1258;SDS011;619;51.472;6.628;2023-06-19T14:04:35;5.83;;;5.33;;
1258;SDS011;619;51.472;6.628;2023-06-19T14:07:01;8.20;;;6.53;;
1258;SDS011;619;51.472;6.628;2023-06-19T14:09:29;5.93;;;5.43;;
1258;SDS011;619;51.472;6.628;2023-06-19T14:11:57;6.70;;;6.13;;
1258;SDS011;619;51.472;6.628;2023-06-19T14:14:24;7.23;;;6.20;;
1258;SDS011;619;51.472;6.628;2023-06-19T14:16:52;6.50;;;6.00;;
1258;SDS011;619;51.472;6.628;2023-06-19T14:19:17;6.47;;;5.87;;
1258;SDS011;619;51.472;6.628;2023-06-19T14:21:43;6.37;;;5.77;;
1258;SDS011;619;51.472;6.628;2023-06-19T14:24:08;7.27;;;6.57;;
1258;SDS011;619;51.472;6.628;2023-06-19T14:26:34;6.90;;;6.30;;
1258;SDS011;619;51.472;6.628;2023-06-19T14:29:00;6.80;;;6.20;;
1258;SDS011;619;51.472;6.628;2023-06-19T14:31:30;9.30;;;6.53;;
1258;SDS011;619;51.472;6.628;2023-06-19T14:33:55;8.33;;;6.47;;
1258;SDS011;619;51.472;6.628;2023-06-19T14:36:21;5.90;;;5.40;;
1258;SDS011;619;51.472;6.628;2023-06-19T14:38:46;6.70;;;6.07;;
1258;SDS011;619;51.472;6.628;2023-06-19T14:41:12;6.53;;;5.93;;
1258;SDS011;619;51.472;6.628;2023-06-19T14:43:38;7.47;;;6.77;;
1258;SDS011;619;51.472;6.628;2023-06-19T14:46:03;7.73;;;5.50;;
1258;SDS011;619;51.472;6.628;2023-06-19T14:48:31;13.30;;;9.00;;
1258;SDS011;619;51.472;6.628;2023-06-19T14:50:57;8.30;;;7.50;;
1258;SDS011;619;51.472;6.628;2023-06-19T14:53:25;7.30;;;6.70;;
1258;SDS011;619;51.472;6.628;2023-06-19T14:55:53;7.77;;;6.97;;
1258;SDS011;619;51.472;6.628;2023-06-19T14:58:18;6.60;;;5.93;;
1258;SDS011;619;51.472;6.628;2023-06-19T15:00:44;6.40;;;5.90;;
1258;SDS011;619;51.472;6.628;2023-06-19T15:03:10;28.63;;;8.43;;
1258;SDS011;619;51.472;6.628;2023-06-19T15:05:36;7.10;;;6.47;;
1258;SDS011;619;51.472;6.628;2023-06-19T15:08:04;9.90;;;7.23;;
1258;SDS011;619;51.472;6.628;2023-06-19T15:10:30;7.50;;;6.83;;
1258;SDS011;619;51.472;6.628;2023-06-19T15:13:01;6.37;;;5.77;;
1258;SDS011;619;51.472;6.628;2023-06-19T15:15:26;6.43;;;5.93;;
1258;SDS011;619;51.472;6.628;2023-06-19T15:17:52;7.10;;;6.40;;
1258;SDS011;619;51.472;6.628;2023-06-19T15:20:18;7.73;;;7.00;;
1258;SDS011;619;51.472;6.628;2023-06-19T15:22:45;8.60;;;7.13;;
1258;SDS011;619;51.472;6.628;2023-06-19T15:25:14;7.23;;;6.13;;
1258;SDS011;619;51.472;6.628;2023-06-19T15:27:40;6.90;;;6.20;;
1258;SDS011;619;51.472;6.628;2023-06-19T15:30:06;6.93;;;6.23;;
1258;SDS011;619;51.472;6.628;2023-06-19T15:32:32;7.63;;;6.27;;
1258;SDS011;619;51.472;6.628;2023-06-19T15:34:58;6.27;;;5.70;;
1258;SDS011;619;51.472;6.628;2023-06-19T15:37:23;5.57;;;5.07;;
1258;SDS011;619;51.472;6.628;2023-06-19T15:39:51;6.33;;;5.83;;
1258;SDS011;619;51.472;6.628;2023-06-19T15:42:19;5.63;;;5.13;;